Weather History for Hebron, NE

Change the Weather History Date:

Saturday, March 22, 2014

  Actual Average Record
Temperature  
Mean Temperature 29 °F -  
Max Temperature 33 °F 54 °F 81 °F (1988)
Min Temperature 23 °F 29 °F 7 °F (1955)
Degree Days  
Heating Degree Days 36    
Moisture  
Dew Point 16 °F    
Average Humidity 63    
Maximum Humidity 87    
Minimum Humidity 28    
Precipitation  
Precipitation 0.00 in - - ()
Sea Level Pressure  
Sea Level Pressure 30.38 in    
Wind  
Wind Speed 12 mph (NNE)    
Max Wind Speed 21 mph    
Max Gust Speed 26 mph    
Visibility 8 miles    
Events Snow    
Averages and records for this station are not official NWS values.
T = Trace of Precipitation, MM = Missing Value Source: NWS Daily Summary

Daily Weather History Graph

Daily Weather History Graph

Search for Another Location

Airport:

Trip Planner

Search our weather history database for the weather conditions in past years. The results will help you decide how hot, cold, wet, or windy it might be!

Date:

Astronomy

Mar. 22, 2014 Rise Set
Actual Time 7:30 AM CDT 7:44 PM CDT
Civil Twilight 7:03 AM CDT 8:11 PM CDT
Nautical Twilight 6:31 AM CDT 8:43 PM CDT
Astronomical Twilight 5:59 AM CDT 9:15 PM CDT
Moon 1:05 AM CDT (3/22) 11:14 AM CDT (3/22)
Length of Visible Light 13h 08m
Length of Day
12h 14m
Waning Gibbous, 65% of the Moon is Illuminated
Mar 22
Waning Gibbous
Mar 23
Last Quarter
Mar 30
New
Apr 7
First Quarter
Apr 15
Full

Hourly Weather History & Observations

Time (CDT) Temp. Windchill Dew Point Humidity Pressure Visibility Wind Dir Wind Speed Gust Speed Precip Events Conditions
12:15 AM 35.1 °F 27.4 °F 25.2 °F 67% 30.26 in 10.0 mi North 10.4 mph - N/A   Clear
12:35 AM 34.3 °F 24.6 °F 24.6 °F 68% 30.26 in 10.0 mi North 15.0 mph - N/A   Clear
12:55 AM 33.6 °F 26.2 °F 23.9 °F 68% 30.27 in 10.0 mi North 9.2 mph - N/A   Clear
1:15 AM 32.4 °F 24.6 °F 23.4 °F 69% 30.28 in 10.0 mi North 9.2 mph 16.1 mph N/A   Clear
1:35 AM 32.0 °F 24.8 °F 22.8 °F 69% 30.29 in 10.0 mi North 8.1 mph - N/A   Clear
2:00 AM 30.6 °F 23.8 °F 22.1 °F 71% 30.30 in 10.0 mi North 6.9 mph - N/A   Clear
2:15 AM 30.2 °F 22.6 °F 22.1 °F 72% 30.30 in 10.0 mi North 8.1 mph - N/A   Clear
2:35 AM 29.7 °F 22.0 °F 21.9 °F 73% 30.30 in 10.0 mi North 8.1 mph - N/A   Clear
2:55 AM 28.8 °F 20.2 °F 21.6 °F 74% 30.30 in 10.0 mi North 9.2 mph - N/A   Clear
3:15 AM 28.8 °F 18.4 °F 21.6 °F 74% 30.30 in 10.0 mi NNE 12.7 mph - N/A   Clear
3:35 AM 27.7 °F 18.2 °F 21.2 °F 77% 30.29 in 10.0 mi NNE 10.4 mph - N/A   Clear
3:55 AM 27.5 °F 19.3 °F 21.2 °F 77% 30.29 in 10.0 mi North 8.1 mph - N/A   Scattered Clouds
4:15 AM 27.3 °F 18.4 °F 21.6 °F 79% 30.29 in 10.0 mi North 9.2 mph - N/A   Scattered Clouds
4:35 AM 27.9 °F 18.4 °F 21.4 °F 77% 30.29 in 10.0 mi North 10.4 mph - N/A   Clear
4:55 AM 28.2 °F 18.3 °F 21.2 °F 75% 30.29 in 10.0 mi NNE 11.5 mph - N/A   Clear
5:15 AM 28.2 °F 17.7 °F 21.2 °F 75% 30.29 in 10.0 mi NNE 12.7 mph - N/A   Scattered Clouds
5:35 AM 28.4 °F 18.0 °F 20.7 °F 73% 30.30 in 10.0 mi NNE 12.7 mph 18.4 mph N/A   Scattered Clouds
5:55 AM 28.8 °F 18.4 °F 20.3 °F 71% 30.31 in 10.0 mi NNE 12.7 mph - N/A   Mostly Cloudy
6:15 AM 28.4 °F 16.6 °F 19.8 °F 70% 30.32 in 10.0 mi NNE 16.1 mph 24.2 mph N/A   Overcast
6:35 AM 28.4 °F 17.5 °F 19.4 °F 69% 30.34 in 10.0 mi NNE 13.8 mph 18.4 mph N/A   Overcast
6:55 AM 27.9 °F 17.3 °F 19.0 °F 69% 30.34 in 10.0 mi NNE 12.7 mph 19.6 mph N/A   Mostly Cloudy
7:15 AM 27.5 °F 15.9 °F 18.3 °F 68% 30.34 in 10.0 mi NNE 15.0 mph 18.4 mph N/A   Mostly Cloudy
7:35 AM 27.1 °F 16.9 °F 18.0 °F 68% 30.36 in 10.0 mi NNE 11.5 mph - N/A   Overcast
7:55 AM 26.6 °F 16.8 °F 17.2 °F 68% 30.37 in 10.0 mi North 10.4 mph 16.1 mph N/A   Overcast
8:15 AM 27.0 °F 18.0 °F 16.7 °F 65% 30.36 in 10.0 mi North 9.2 mph - N/A   Mostly Cloudy
8:35 AM 26.4 °F 14.0 °F 14.7 °F 61% 30.36 in 10.0 mi North 16.1 mph 20.7 mph N/A   Scattered Clouds
8:55 AM 26.6 °F 14.7 °F 14.4 °F 60% 30.37 in 10.0 mi NNE 15.0 mph 18.4 mph N/A   Mostly Cloudy
9:15 AM 27.0 °F 15.6 °F 14.4 °F 59% 30.37 in 10.0 mi North 13.8 mph 18.4 mph N/A   Overcast
9:35 AM 27.0 °F 16.1 °F 14.2 °F 59% 30.39 in 10.0 mi North 12.7 mph - N/A   Overcast
9:55 AM 27.3 °F 17.1 °F 13.6 °F 56% 30.39 in 10.0 mi North 11.5 mph 17.3 mph N/A   Mostly Cloudy
10:15 AM 26.4 °F 15.5 °F 12.6 °F 56% 30.39 in 10.0 mi North 12.7 mph - N/A   Mostly Cloudy
10:35 AM 27.7 °F 17.6 °F 12.0 °F 52% 30.41 in 10.0 mi North 11.5 mph 16.1 mph N/A   Mostly Cloudy
10:55 AM 27.7 °F 15.2 °F 7.5 °F 43% 30.41 in 10.0 mi NE 17.3 mph - N/A   Mostly Cloudy
11:15 AM 28.4 °F 16.6 °F 7.7 °F 42% 30.41 in 10.0 mi NE 16.1 mph 19.6 mph N/A   Overcast
11:35 AM 29.1 °F 18.4 °F 9.9 °F 45% 30.40 in 10.0 mi NNE 13.8 mph 18.4 mph N/A   Mostly Cloudy
11:55 AM 28.9 °F 18.6 °F 8.1 °F 41% 30.39 in 10.0 mi NNE 12.7 mph 20.7 mph N/A   Mostly Cloudy
12:15 PM 29.3 °F 17.7 °F 6.8 °F 39% 30.39 in 10.0 mi NNE 16.1 mph 19.6 mph N/A   Overcast
12:35 PM 30.6 °F 19.8 °F 6.8 °F 37% 30.39 in 10.0 mi NE 15.0 mph 21.9 mph N/A   Mostly Cloudy
12:55 PM 31.6 °F 21.6 °F 6.6 °F 35% 30.38 in 10.0 mi NNE 13.8 mph - N/A   Scattered Clouds
1:15 PM 32.0 °F 22.5 °F 5.5 °F 33% 30.39 in 10.0 mi NNE 12.7 mph 19.6 mph N/A   Mostly Cloudy
1:35 PM 32.4 °F 22.5 °F 5.2 °F 32% 30.39 in 10.0 mi NNE 13.8 mph 18.4 mph N/A   Mostly Cloudy
1:55 PM 33.1 °F 23.4 °F 4.6 °F 30% 30.39 in 10.0 mi NNE 13.8 mph 20.7 mph N/A   Mostly Cloudy
2:15 PM 33.1 °F 23.0 °F 4.1 °F 29% 30.39 in 10.0 mi NNE 15.0 mph 19.6 mph N/A   Overcast
2:35 PM 32.9 °F 23.2 °F 3.2 °F 29% 30.38 in 10.0 mi NNE 13.8 mph - N/A   Overcast
2:55 PM 32.4 °F 22.1 °F 2.7 °F 28% 30.37 in 10.0 mi NNE 15.0 mph - N/A   Overcast
3:15 PM 32.7 °F 23.0 °F 3.2 °F 29% 30.37 in 10.0 mi NNE 13.8 mph 20.7 mph N/A   Overcast
3:35 PM 32.2 °F 22.3 °F 3.6 °F 30% 30.37 in 10.0 mi North 13.8 mph 21.9 mph N/A   Overcast
3:55 PM 31.8 °F 21.0 °F 9.1 °F 39% 30.37 in 10.0 mi NE 16.1 mph 24.2 mph N/A   Overcast
4:15 PM 31.6 °F 20.7 °F 7.2 °F 36% 30.38 in 10.0 mi NNE 16.1 mph 24.2 mph N/A   Overcast
4:35 PM 30.9 °F 19.4 °F 10.4 °F 42% 30.38 in 7.0 mi NE 17.3 mph 21.9 mph N/A   Overcast
4:55 PM 31.1 °F 20.5 °F 8.6 °F 39% 30.38 in 10.0 mi NNE 15.0 mph 24.2 mph N/A   Overcast
5:15 PM 31.1 °F 20.1 °F 11.3 °F 44% 30.38 in 10.0 mi NNE 16.1 mph 20.7 mph N/A   Overcast
5:35 PM 28.8 °F 15.5 °F 17.2 °F 62% 30.39 in 7.0 mi NNE 20.7 mph 26.5 mph N/A Snow Light Snow
5:55 PM 26.4 °F 13.6 °F 21.2 °F 81% 30.39 in 1.5 mi North 17.3 mph 24.2 mph N/A Snow Light Snow
6:15 PM 26.4 °F 14.0 °F 21.4 °F 81% 30.39 in 2.0 mi NNE 16.1 mph 23.0 mph N/A Snow Light Snow
6:35 PM 26.1 °F 15.0 °F 21.0 °F 81% 30.40 in 3.0 mi NNE 12.7 mph - N/A Snow Light Snow
6:55 PM 26.1 °F 15.0 °F 21.7 °F 84% 30.41 in 4.0 mi NNE 12.7 mph 18.4 mph N/A Snow Light Snow
7:15 PM 25.7 °F 14.6 °F 21.7 °F 85% 30.42 in 3.0 mi North 12.7 mph 17.3 mph N/A Snow Light Snow
7:35 PM 25.3 °F 13.6 °F 21.2 °F 84% 30.42 in 3.0 mi NNE 13.8 mph 17.3 mph N/A Snow Light Snow
7:55 PM 25.2 °F 14.4 °F 21.6 °F 86% 30.43 in 4.0 mi North 11.5 mph 16.1 mph N/A Snow Light Snow
8:15 PM 25.2 °F 15.1 °F 21.4 °F 86% 30.44 in 4.0 mi NNE 10.4 mph - N/A Snow Light Snow
8:35 PM 24.8 °F 16.9 °F 21.2 °F 86% 30.45 in 4.0 mi North 6.9 mph - N/A Snow Light Snow
8:55 PM 24.8 °F 17.9 °F 21.6 °F 87% 30.46 in 5.0 mi North 5.8 mph - N/A Snow Light Snow
9:15 PM 25.2 °F 18.3 °F 21.7 °F 87% 30.48 in 10.0 mi NNW 5.8 mph - N/A   Overcast
9:35 PM 25.3 °F 18.5 °F 20.8 °F 83% 30.49 in 7.0 mi NNW 5.8 mph - N/A   Overcast
9:55 PM 25.2 °F 15.1 °F 20.5 °F 82% 30.49 in 4.0 mi NNW 10.4 mph - N/A Snow Light Snow
10:15 PM 24.8 °F 16.1 °F 20.3 °F 83% 30.50 in 3.0 mi North 8.1 mph - N/A Snow Light Snow
10:35 PM 24.8 °F 14.0 °F 18.9 °F 78% 30.50 in 5.0 mi North 11.5 mph - N/A Snow Light Snow
10:55 PM 23.9 °F 13.5 °F 19.0 °F 82% 30.52 in 4.0 mi North 10.4 mph - N/A Snow Light Snow
11:15 PM 23.7 °F 12.1 °F 18.5 °F 80% 30.52 in 5.0 mi North 12.7 mph - N/A   Haze
11:35 PM 23.7 °F 15.6 °F 18.5 °F 80% 30.53 in 10.0 mi NNE 6.9 mph - N/A Snow Light Snow
11:55 PM 23.7 °F 15.6 °F 18.0 °F 79% 30.53 in 10.0 mi North 6.9 mph - N/A   Overcast